Singapore Changi Airport

WSSS · 新加坡

罗盘
风向 的 风向 050° 新加坡樟宜机场 2C/20C
风: 14 kt, 4 beaufort

12 kt

6 kt
改变
0 ft 1.000 2.000 3.000 4.000 5.000
Cloud Cloud Cloud Cloud
SCT 1.400
METAR WIDD 070700Z 05014KT 9999 SCT014 30/25 Q1010 NOSIG

METAR 新加坡樟宜机场 - WSSS/SIN

新加坡樟宜机场是,新加坡中的大型机场。 该机场有4条跑道: 2C/20C, 2L/20R, 2/20 和 2R/20L. 该领域的国际民航组织标志是WSSS 它的国际航空运输协会代码是SIN.

这份报告是针对2023年2月7日 14:00, 当地时间在韓那丁國際機場进行的。

机场观察

风向为050°,速度为14 kt。

可见度为10 km 或者更多。

有疏云,零星散落的云朵在1.400 ft的高度。 没有观察到天花板。

温度和风寒是30 °C。 热指数为36。 露点为25 °C,相对湿度为75%。 海平面上的气压为1010 hPa (QNH)。

白天

今天,太阳从07:16升起,在19:20降落。 这适用于新加坡樟宜机场,世界夏令时可能有所不同。 当地时间与世界标准时间之间的时差为+8 小时。 当前,没有夏令时有效。

公司介绍

在这个机场,你可以找到飞行学校。 本场上唯一已知的公司是Jacklyne Ong。

体会

到Vliegles.nl去找飞行课程,跳伞和其他飞行体验。 浏览页面,了解新加坡樟宜机场附近所有可用的活动。 你也可以使用搜索功能来寻找你所在地附近的特定飞行课程、跳伞或其他飞行体验。

跑道

Id 标题 侧风 逆风 侧风 %
2C/20C 023°-203° 6 kt 12 kt 45 %
2L/20R 023°-203° 6 kt 12 kt 45 %
2/20 023°-203° 6 kt 12 kt 45 %
2R/20L 023°-203° 6 kt 12 kt 45 %

逆风成分最大的方向会被突出显示,并用于横风计算。 这并不一定意味着这个方向在使用。

乌云

1.400 ft SCT 疏云,零星散落的云朵

温度 & 天气

温度 30 °C
露点 25 °C
相对湿度 75%
热度指数 36 °C
Kp-index 2 (0-9)

白天

日出
07:15
中午
13:17
日落
19:19 (3:39)

小工具

你想在你的网站上有一个关于新加坡樟宜机场的当前航空天气(METAR)的小部件吗?

显示HTML代码

我们和第三方通过cookies跟踪您在我们网站上的互联网行为。如果你继续,我们认为你同意我们的饼干政策